Athens Eleftherios, Greece

10:49 AM EEST on July 28, 2016 (GMT +0300)
Agios Nikolaos, Spata-19004, Athens (GR) | | Change Station

Elev 446 ft 37.98 °N, 23.90 °E | Updated 57 seconds ago

Partly Cloudy
Partly Cloudy
88.8 °F
Feels Like 89 °F
N
13.0
Wind Variable Wind from North
Gusts 17.4 mph

Today
High -- | Low -- °F
--% Chance of Precip.
Yesterday
High -- | Low -- °F
Precip. -- in
Pressure 29.89 in
Visibility 6.2 miles
Clouds Few 2500 ft
Heat Index 89 °F
Dew Point 61 °F
Humidity 39%
Rainfall 0.00 in
Snow Depth Not available.
6:24 AM 8:36 PM
Waning Crescent, 34% visible
METAR LGAV 280720Z 02014KT 9999 FEW025 29/17 Q1012 NOSIG
Pressure 29.89 in
Visibility 6.2 miles
Clouds Few 2500 ft
Heat Index 89 °F
Dew Point 61 °F
Humidity 39%
Rainfall 0.00 in
Snow Depth Not available.
6:24 AM 8:36 PM
Waning Crescent, 34% visible
METAR LGAV 280720Z 02014KT 9999 FEW025 29/17 Q1012 NOSIG

10-Day Weather Forecast

×

Almanac

Astronomy

Jul. 28, 2016 Rise Set
Actual Time
Civil Twilight
Nautical Twilight
Astronomical Twilight
Moon
Length of Visible Light
Length of Day
Tomorrow will be .
, % of the Moon is Illuminated

Today's Extremes

Country Highs Country Lows

Community

WunderPhotos

Upload Photos

1,928,070 photos uploaded!

WunderBlog® & News

Nearby

Air Quality

  Air Quality AQ Index Pollutant
Not available.

Snow Depth

Station Depth Elevation

Earthquake Activity

City Distance Mag. Time & Date
Minimum magnitude displayed is 2.5.

Coastal Water Temperatures

Place Temperature

Stations

Nearby Weather Stations

Station Location Temp. Windchill Dew Point Humidity Wind Precip. Elev Updated Type